createdAt,value
2022-11-15T00:01:44.971Z,22.20
2022-11-15T00:04:52.874Z,23.60
2022-11-15T00:08:02.395Z,21.80
2022-11-15T00:11:12.452Z,18.10
2022-11-15T00:17:27.978Z,19.80
2022-11-15T00:20:37.318Z,16.80
2022-11-15T00:23:45.920Z,17.80
2022-11-15T00:26:53.877Z,17.90
2022-11-15T00:30:01.964Z,22.60
2022-11-15T00:33:12.874Z,22.40
2022-11-15T00:36:20.684Z,23.10
2022-11-15T00:39:29.199Z,23.80
2022-11-15T00:42:38.584Z,22.10
2022-11-15T00:45:46.748Z,22.60
2022-11-15T00:48:54.860Z,22.00
2022-11-15T00:52:02.801Z,24.60
2022-11-15T00:55:15.371Z,24.00
2022-11-15T00:58:23.570Z,25.40
2022-11-15T01:01:31.597Z,27.70
2022-11-15T01:04:39.729Z,24.50
2022-11-15T01:07:47.652Z,22.20
2022-11-15T01:10:56.019Z,25.80
2022-11-15T01:14:03.979Z,23.80
2022-11-15T01:17:11.980Z,24.50
2022-11-15T01:20:20.212Z,23.00
2022-11-15T01:23:28.103Z,22.30
2022-11-15T01:26:36.103Z,26.60
2022-11-15T01:29:44.422Z,22.30
2022-11-15T01:32:52.226Z,19.90
2022-11-15T01:36:00.640Z,21.80
2022-11-15T01:39:08.826Z,22.90
2022-11-15T01:42:20.445Z,22.00
2022-11-15T01:45:28.835Z,22.50
2022-11-15T01:48:38.849Z,21.60
2022-11-15T01:51:47.991Z,20.80
2022-11-15T01:55:04.388Z,22.80
2022-11-15T01:58:12.844Z,22.90
2022-11-15T02:01:21.640Z,23.00
2022-11-15T02:04:33.815Z,21.40
2022-11-15T02:07:43.256Z,14.40
2022-11-15T02:10:53.592Z,14.30
2022-11-15T02:14:06.148Z,19.80
2022-11-15T02:17:47.557Z,19.00
2022-11-15T02:21:21.360Z,21.50
2022-11-15T02:25:00.727Z,20.20
2022-11-15T02:28:51.312Z,21.40
2022-11-15T02:32:08.342Z,21.00
2022-11-15T02:35:31.160Z,16.40
2022-11-15T02:38:51.625Z,14.60
2022-11-15T02:42:05.203Z,15.10
2022-11-15T02:45:19.813Z,12.60
2022-11-15T02:48:29.276Z,11.50
2022-11-15T02:51:38.231Z,14.20
2022-11-15T02:54:55.692Z,15.00
2022-11-15T02:58:24.686Z,13.90
2022-11-15T03:01:50.591Z,17.00
2022-11-15T03:05:05.680Z,13.80
2022-11-15T03:08:22.893Z,14.10
2022-11-15T03:11:35.119Z,14.30
2022-11-15T03:14:53.906Z,13.60
2022-11-15T03:18:09.398Z,13.90
2022-11-15T03:21:21.790Z,13.70
2022-11-15T03:24:34.047Z,13.50
2022-11-15T03:27:48.957Z,12.50
2022-11-15T03:30:59.024Z,12.60
2022-11-15T03:34:13.790Z,14.20
2022-11-15T03:37:27.722Z,12.80
2022-11-15T03:40:42.481Z,10.50
2022-11-15T03:43:59.286Z,13.50
2022-11-15T03:47:14.141Z,13.40
2022-11-15T03:50:26.468Z,13.10
2022-11-15T03:53:35.684Z,13.40
2022-11-15T03:56:44.130Z,12.80
2022-11-15T03:59:52.171Z,12.50
2022-11-15T04:03:00.315Z,11.70
2022-11-15T04:06:09.153Z,6.90
2022-11-15T04:09:17.574Z,14.60
2022-11-15T04:12:32.367Z,14.30
2022-11-15T04:15:41.185Z,14.20
2022-11-15T04:19:10.054Z,16.60
2022-11-15T04:22:35.801Z,16.10
2022-11-15T04:25:45.414Z,14.70
2022-11-15T04:29:11.064Z,14.20
2022-11-15T04:32:19.056Z,15.90
2022-11-15T04:35:27.261Z,15.30
2022-11-15T04:38:35.270Z,15.80
2022-11-15T04:41:43.367Z,14.60
2022-11-15T04:44:51.334Z,17.80
2022-11-15T04:47:59.300Z,24.20
2022-11-15T04:51:07.406Z,24.60
2022-11-15T04:54:15.164Z,26.00
2022-11-15T04:57:23.317Z,17.20
2022-11-15T05:00:32.605Z,15.90
2022-11-15T05:03:58.510Z,17.60
2022-11-15T05:07:07.111Z,18.20
2022-11-15T05:10:15.791Z,15.10
2022-11-15T05:13:23.858Z,20.80
2022-11-15T05:16:31.960Z,19.00
2022-11-15T05:19:40.278Z,18.30
2022-11-15T05:22:49.659Z,20.10
2022-11-15T05:26:08.009Z,18.70
2022-11-15T05:29:17.115Z,20.00
2022-11-15T05:32:26.263Z,17.60
2022-11-15T05:35:41.284Z,19.50
2022-11-15T05:38:50.732Z,22.80
2022-11-15T05:42:05.088Z,19.20
2022-11-15T05:45:14.262Z,16.70
2022-11-15T05:48:23.062Z,20.00
2022-11-15T05:51:33.277Z,20.70
2022-11-15T05:54:43.105Z,16.70
2022-11-15T05:57:51.192Z,21.80
2022-11-15T06:01:00.142Z,17.20
2022-11-15T06:04:08.320Z,19.10
2022-11-15T06:07:16.366Z,20.50
2022-11-15T06:10:24.839Z,20.70
2022-11-15T06:13:33.408Z,20.10
2022-11-15T06:16:42.215Z,20.00
2022-11-15T06:19:50.193Z,23.10
2022-11-15T06:23:02.935Z,23.00
2022-11-15T06:26:11.493Z,20.80
2022-11-15T06:29:19.594Z,23.30
2022-11-15T06:32:28.015Z,23.30
2022-11-15T06:35:38.777Z,24.30
2022-11-15T06:38:48.409Z,24.20
2022-11-15T06:41:56.408Z,23.70
2022-11-15T06:45:05.767Z,25.70
2022-11-15T06:48:14.374Z,22.80
2022-11-15T06:51:23.178Z,23.70
2022-11-15T06:54:31.330Z,28.90
2022-11-15T06:57:39.629Z,25.50
2022-11-15T07:00:48.921Z,28.40
2022-11-15T07:03:57.084Z,21.20
2022-11-15T07:07:05.223Z,26.00
2022-11-15T07:10:15.040Z,25.10
2022-11-15T07:13:26.458Z,25.50
2022-11-15T07:16:34.921Z,24.80
2022-11-15T07:19:43.069Z,25.70
2022-11-15T07:22:51.376Z,26.40
2022-11-15T07:26:00.430Z,26.40
2022-11-15T07:29:08.609Z,24.30
2022-11-15T07:32:16.629Z,24.30
2022-11-15T07:35:24.635Z,27.40
2022-11-15T07:38:36.864Z,25.60
2022-11-15T07:41:49.636Z,30.70
2022-11-15T07:44:57.773Z,30.60
2022-11-15T07:48:06.413Z,31.80
2022-11-15T07:51:17.877Z,35.80
2022-11-15T07:54:25.963Z,28.80
2022-11-15T07:57:34.656Z,29.00
2022-11-15T08:00:43.383Z,32.00
2022-11-15T08:03:51.531Z,30.70
2022-11-15T08:07:00.168Z,32.60
2022-11-15T08:10:10.410Z,32.00
2022-11-15T08:13:18.968Z,31.10
2022-11-15T08:16:27.381Z,35.10
2022-11-15T08:19:35.357Z,31.10
2022-11-15T08:22:43.412Z,31.20
2022-11-15T08:25:51.312Z,28.10
2022-11-15T08:28:59.595Z,28.90
2022-11-15T08:32:08.615Z,28.90
2022-11-15T08:35:16.752Z,31.90
2022-11-15T08:38:24.892Z,33.00
2022-11-15T08:41:39.028Z,35.10
2022-11-15T08:44:47.118Z,30.10
2022-11-15T08:47:55.461Z,31.30
2022-11-15T08:51:03.467Z,32.50
2022-11-15T08:54:11.631Z,30.80
2022-11-15T08:57:19.741Z,28.30
2022-11-15T09:00:29.733Z,35.90
2022-11-15T09:03:38.519Z,23.50
2022-11-15T09:06:47.127Z,35.20
2022-11-15T09:09:55.583Z,25.50
2022-11-15T09:13:03.719Z,30.60
2022-11-15T09:16:14.686Z,24.60
2022-11-15T09:19:23.317Z,32.00
2022-11-15T09:22:31.289Z,33.10
2022-11-15T09:25:40.363Z,30.50
2022-11-15T09:28:48.357Z,32.70
2022-11-15T09:31:57.660Z,30.10
2022-11-15T09:35:06.013Z,39.00
2022-11-15T09:38:14.131Z,31.80
2022-11-15T09:41:57.441Z,33.10
2022-11-15T09:45:20.939Z,32.40
2022-11-15T09:48:57.568Z,31.10
2022-11-15T09:52:06.136Z,28.90
2022-11-15T09:55:22.707Z,31.60
2022-11-15T09:58:39.180Z,29.30
2022-11-15T10:01:59.019Z,28.50
2022-11-15T10:08:34.987Z,26.10
2022-11-15T10:11:44.442Z,26.90
2022-11-15T10:15:05.850Z,28.50
2022-11-15T10:18:29.933Z,28.00
2022-11-15T10:21:58.104Z,28.10
2022-11-15T10:25:24.875Z,28.50
2022-11-15T10:28:34.754Z,27.70
2022-11-15T10:31:45.162Z,25.40
2022-11-15T10:34:54.195Z,33.30
2022-11-15T10:38:13.266Z,28.90
2022-11-15T10:41:24.061Z,30.50
2022-11-15T10:44:44.145Z,28.60
2022-11-15T10:47:52.341Z,32.10
2022-11-15T10:51:00.550Z,33.70
2022-11-15T10:54:17.115Z,27.60
2022-11-15T10:57:31.979Z,27.70
2022-11-15T11:00:43.413Z,31.30
2022-11-15T11:04:05.508Z,30.00
2022-11-15T11:07:27.579Z,29.40
2022-11-15T11:10:51.199Z,28.00
2022-11-15T11:14:18.470Z,34.70
2022-11-15T11:17:38.891Z,31.10
2022-11-15T11:20:53.436Z,32.30
2022-11-15T11:24:13.887Z,31.20
2022-11-15T11:27:38.987Z,31.90
2022-11-15T11:31:01.894Z,32.40
2022-11-15T11:34:32.498Z,28.20
2022-11-15T11:37:49.830Z,29.70
2022-11-15T11:41:14.723Z,30.90
2022-11-15T11:44:41.247Z,31.00
2022-11-15T11:47:58.949Z,30.80
2022-11-15T11:51:19.000Z,31.50
2022-11-15T11:54:39.499Z,34.10
2022-11-15T11:57:59.515Z,32.90
2022-11-15T12:01:17.385Z,35.10
2022-11-15T12:04:37.196Z,32.40
2022-11-15T12:11:11.794Z,32.10
2022-11-15T12:14:33.675Z,31.70
2022-11-15T12:17:44.880Z,33.10
2022-11-15T12:21:01.885Z,33.90
2022-11-15T12:24:19.433Z,31.10
2022-11-15T12:27:39.423Z,33.30
2022-11-15T12:30:57.131Z,42.30
2022-11-15T12:34:16.247Z,44.10
2022-11-15T12:37:56.293Z,40.10
2022-11-15T12:41:22.592Z,37.10
2022-11-15T12:45:02.240Z,34.40
2022-11-15T12:48:52.039Z,34.00
2022-11-15T12:52:13.548Z,33.50
2022-11-15T12:55:38.043Z,33.90
2022-11-15T12:58:52.016Z,35.20
2022-11-15T13:02:05.233Z,34.70
2022-11-15T13:06:01.306Z,37.00
2022-11-15T13:09:47.457Z,33.30
2022-11-15T13:13:02.026Z,35.20
2022-11-15T13:16:10.977Z,33.30
2022-11-15T13:19:22.051Z,32.10
2022-11-15T13:22:48.096Z,33.20
2022-11-15T13:26:17.660Z,35.00
2022-11-15T13:29:25.973Z,37.60
2022-11-15T13:32:34.742Z,33.50
2022-11-15T13:35:48.455Z,36.90
2022-11-15T13:39:06.732Z,40.50
2022-11-15T13:42:21.806Z,42.40
2022-11-15T13:45:30.729Z,40.30
2022-11-15T13:48:39.194Z,41.60
2022-11-15T13:51:52.566Z,42.80
2022-11-15T13:55:09.665Z,39.60
2022-11-15T13:58:22.922Z,30.10
2022-11-15T14:01:35.611Z,41.70
2022-11-15T14:04:51.801Z,42.80
2022-11-15T14:08:02.623Z,28.30
2022-11-15T14:11:21.115Z,38.70
2022-11-15T14:14:31.548Z,37.80
2022-11-15T14:17:49.571Z,48.50
2022-11-15T14:21:12.778Z,50.90
2022-11-15T14:24:23.508Z,42.70
2022-11-15T14:27:32.428Z,39.00
2022-11-15T14:30:41.921Z,37.50
2022-11-15T14:33:51.357Z,43.30
2022-11-15T14:36:59.458Z,46.30
2022-11-15T14:40:14.296Z,43.80
2022-11-15T14:43:22.198Z,47.10
2022-11-15T14:46:30.249Z,42.60
2022-11-15T14:49:39.516Z,42.30
2022-11-15T14:52:48.684Z,43.40
2022-11-15T14:55:56.544Z,34.80
2022-11-15T14:59:04.189Z,38.40
2022-11-15T15:02:23.265Z,41.70
2022-11-15T15:05:36.515Z,40.50
2022-11-15T15:08:44.765Z,43.80
2022-11-15T15:11:52.751Z,36.50
2022-11-15T15:15:00.834Z,42.60
2022-11-15T15:18:09.778Z,44.20
2022-11-15T15:21:33.723Z,41.40
2022-11-15T15:24:43.637Z,42.00
2022-11-15T15:27:51.581Z,43.10
2022-11-15T15:30:59.520Z,44.60
2022-11-15T15:34:13.665Z,41.40
2022-11-15T15:37:29.865Z,39.00
2022-11-15T15:40:38.491Z,44.10
2022-11-15T15:43:47.287Z,41.90
2022-11-15T15:46:55.379Z,46.20
2022-11-15T15:50:03.873Z,47.20
2022-11-15T15:53:12.414Z,45.50
2022-11-15T15:56:20.221Z,41.40
2022-11-15T15:59:28.172Z,41.00
2022-11-15T16:02:40.249Z,46.00
2022-11-15T16:05:48.802Z,49.60
2022-11-15T16:09:14.220Z,52.30
2022-11-15T16:12:25.162Z,48.10
2022-11-15T16:15:35.352Z,40.70
2022-11-15T16:18:43.579Z,47.50
2022-11-15T16:21:53.122Z,48.80
2022-11-15T16:25:01.182Z,49.10
2022-11-15T16:28:14.665Z,51.70
2022-11-15T16:31:23.309Z,43.30
2022-11-15T16:34:33.841Z,54.60
2022-11-15T16:37:47.407Z,52.10
2022-11-15T16:40:55.908Z,48.20
2022-11-15T16:44:04.123Z,42.50
2022-11-15T16:47:21.666Z,42.70
2022-11-15T16:50:35.155Z,44.20
2022-11-15T16:53:44.234Z,45.70
2022-11-15T16:56:51.985Z,52.40
2022-11-15T16:59:59.900Z,57.20
2022-11-15T17:03:08.283Z,43.40
2022-11-15T17:06:18.896Z,43.50
2022-11-15T17:09:27.530Z,45.50
2022-11-15T17:12:35.407Z,40.20
2022-11-15T17:15:43.826Z,39.70
2022-11-15T17:18:55.379Z,41.70
2022-11-15T17:22:03.963Z,38.70
2022-11-15T17:25:13.505Z,44.80
2022-11-15T17:28:21.249Z,39.00
2022-11-15T17:31:30.908Z,41.00
2022-11-15T17:34:38.839Z,40.60
2022-11-15T17:37:48.529Z,42.70
2022-11-15T17:41:06.353Z,44.90
2022-11-15T17:44:14.493Z,42.80
2022-11-15T17:47:22.353Z,45.30
2022-11-15T17:50:30.678Z,44.60
2022-11-15T17:53:41.872Z,43.10
2022-11-15T17:56:49.941Z,42.70
2022-11-15T17:59:57.704Z,35.20
2022-11-15T18:03:05.606Z,51.80
2022-11-15T18:06:14.779Z,45.90
2022-11-15T18:09:23.198Z,52.80
2022-11-15T18:12:31.373Z,50.10
2022-11-15T18:15:39.172Z,46.90
2022-11-15T18:18:48.476Z,36.10
2022-11-15T18:21:59.342Z,40.80
2022-11-15T18:25:08.017Z,40.80
2022-11-15T18:28:15.858Z,37.80
2022-11-15T18:31:26.318Z,37.30
2022-11-15T18:34:34.388Z,38.20
2022-11-15T18:37:42.659Z,36.60
2022-11-15T18:40:50.595Z,37.80
2022-11-15T18:43:59.662Z,34.00
2022-11-15T18:47:08.059Z,34.50
2022-11-15T18:50:15.985Z,32.40
2022-11-15T18:53:24.174Z,35.80
2022-11-15T18:56:34.005Z,31.70
2022-11-15T18:59:42.070Z,33.70
2022-11-15T19:02:53.975Z,32.30
2022-11-15T19:06:08.837Z,34.10
2022-11-15T19:09:20.253Z,35.40
2022-11-15T19:12:28.991Z,36.90
2022-11-15T19:15:37.006Z,34.00
2022-11-15T19:18:45.503Z,35.80
2022-11-15T19:21:54.226Z,32.40
2022-11-15T19:25:09.117Z,38.20
2022-11-15T19:28:17.158Z,31.40
2022-11-15T19:31:28.776Z,28.60
2022-11-15T19:34:36.713Z,31.80
2022-11-15T19:37:45.154Z,31.80
2022-11-15T19:40:58.248Z,34.00
2022-11-15T19:44:07.196Z,33.20
2022-11-15T19:47:15.679Z,32.40
2022-11-15T19:50:23.796Z,32.00
2022-11-15T19:53:35.103Z,33.40
2022-11-15T19:56:43.487Z,31.10
2022-11-15T19:59:51.600Z,31.00
2022-11-15T20:02:59.360Z,32.30
2022-11-15T20:06:10.583Z,29.40
2022-11-15T20:09:20.786Z,30.20
2022-11-15T20:12:28.606Z,32.90
2022-11-15T20:15:36.945Z,27.20
2022-11-15T20:18:45.244Z,27.00
2022-11-15T20:21:53.402Z,29.70
2022-11-15T20:25:01.457Z,28.00
2022-11-15T20:28:11.452Z,26.50
2022-11-15T20:31:20.144Z,32.50
2022-11-15T20:34:28.695Z,34.20
2022-11-15T20:37:36.665Z,28.40
2022-11-15T20:40:48.255Z,33.10
2022-11-15T20:43:56.281Z,28.40
2022-11-15T20:47:04.653Z,31.50
2022-11-15T20:50:40.413Z,30.30
2022-11-15T20:53:41.877Z,32.50
2022-11-15T20:56:49.795Z,30.00
2022-11-15T21:00:01.750Z,33.70
2022-11-15T21:03:12.718Z,31.30
2022-11-15T21:06:21.184Z,29.60
2022-11-15T21:09:46.796Z,29.20
2022-11-15T21:12:54.864Z,29.60
2022-11-15T21:16:03.842Z,29.00
2022-11-15T21:19:12.424Z,32.30
2022-11-15T21:22:21.451Z,31.40
2022-11-15T21:25:29.514Z,30.90
2022-11-15T21:28:37.616Z,40.70
2022-11-15T21:31:46.017Z,38.70
2022-11-15T21:34:55.591Z,37.30
2022-11-15T21:38:03.356Z,33.60
2022-11-15T21:41:11.684Z,31.70
2022-11-15T21:44:19.507Z,28.70
2022-11-15T21:47:27.347Z,30.80
2022-11-15T21:50:35.128Z,29.30
2022-11-15T21:53:43.395Z,28.30
2022-11-15T21:56:51.694Z,30.80
2022-11-15T22:00:17.411Z,29.40
2022-11-15T22:03:25.311Z,30.40
2022-11-15T22:06:33.396Z,31.50
2022-11-15T22:09:41.669Z,30.10
2022-11-15T22:12:50.992Z,28.20
2022-11-15T22:15:59.611Z,32.60
2022-11-15T22:19:08.247Z,30.20
2022-11-15T22:22:17.917Z,36.90
2022-11-15T22:25:27.032Z,28.10
2022-11-15T22:28:36.372Z,40.10
2022-11-15T22:31:45.298Z,32.00
2022-11-15T22:34:53.581Z,29.20
2022-11-15T22:38:01.859Z,33.70
2022-11-15T22:41:11.519Z,32.00
2022-11-15T22:44:19.785Z,23.50
2022-11-15T22:47:28.210Z,26.80
2022-11-15T22:50:37.058Z,35.60
2022-11-15T22:53:45.459Z,40.20
2022-11-15T22:56:53.601Z,39.20
2022-11-15T23:00:04.201Z,33.00
2022-11-15T23:03:12.671Z,28.60
2022-11-15T23:06:20.955Z,25.90
2022-11-15T23:09:29.604Z,40.60
2022-11-15T23:12:55.621Z,35.90
2022-11-15T23:16:26.159Z,33.50
2022-11-15T23:19:34.708Z,40.80
2022-11-15T23:22:49.441Z,37.70
2022-11-15T23:26:04.215Z,34.10
2022-11-15T23:29:15.391Z,35.60
2022-11-15T23:32:41.378Z,29.60
2022-11-15T23:35:58.642Z,30.80
2022-11-15T23:39:07.377Z,31.80
2022-11-15T23:42:20.182Z,33.40
2022-11-15T23:45:30.874Z,37.10
2022-11-15T23:48:39.203Z,25.90
2022-11-15T23:51:47.990Z,27.60
2022-11-15T23:54:56.381Z,31.20
2022-11-15T23:58:04.527Z,34.80
